sensor_id;sensor_type;location;lat;lon;timestamp;pressure;altitude;pressure_sealevel;temperature;humidity
84427;BME280;74637;52.170;21.034;2024-02-15T00:01:52;101145.06;;;5.19;59.42
84427;BME280;74637;52.170;21.034;2024-02-15T00:04:18;101143.48;;;5.19;59.23
84427;BME280;74637;52.170;21.034;2024-02-15T00:06:46;101143.13;;;5.20;59.13
84427;BME280;74637;52.170;21.034;2024-02-15T00:09:13;101139.42;;;5.20;59.25
84427;BME280;74637;52.170;21.034;2024-02-15T00:11:39;101145.40;;;5.19;59.00
84427;BME280;74637;52.170;21.034;2024-02-15T00:14:06;101142.09;;;5.19;59.17
84427;BME280;74637;52.170;21.034;2024-02-15T00:16:34;101141.90;;;5.20;59.57
84427;BME280;74637;52.170;21.034;2024-02-15T00:19:01;101140.34;;;5.18;59.15
84427;BME280;74637;52.170;21.034;2024-02-15T00:21:28;101143.00;;;5.17;59.13
84427;BME280;74637;52.170;21.034;2024-02-15T00:23:55;101150.02;;;5.17;59.31
84427;BME280;74637;52.170;21.034;2024-02-15T00:26:23;101149.67;;;5.17;59.25
84427;BME280;74637;52.170;21.034;2024-02-15T00:28:49;101149.86;;;5.16;59.27
84427;BME280;74637;52.170;21.034;2024-02-15T00:31:16;101151.09;;;5.17;59.27
84427;BME280;74637;52.170;21.034;2024-02-15T00:33:43;101150.20;;;5.17;59.29
84427;BME280;74637;52.170;21.034;2024-02-15T00:36:10;101149.84;;;5.18;59.36
84427;BME280;74637;52.170;21.034;2024-02-15T00:38:37;101148.26;;;5.18;59.45
84427;BME280;74637;52.170;21.034;2024-02-15T00:41:04;101147.22;;;5.16;59.32
84427;BME280;74637;52.170;21.034;2024-02-15T00:43:34;101145.64;;;5.15;59.71
84427;BME280;74637;52.170;21.034;2024-02-15T00:46:02;101148.66;;;5.14;59.64
84427;BME280;74637;52.170;21.034;2024-02-15T00:48:29;101151.83;;;5.13;59.68
84427;BME280;74637;52.170;21.034;2024-02-15T00:50:56;101152.52;;;5.14;59.69
84427;BME280;74637;52.170;21.034;2024-02-15T00:53:24;101153.23;;;5.14;59.70
84427;BME280;74637;52.170;21.034;2024-02-15T00:55:51;101153.94;;;5.14;59.79
84427;BME280;74637;52.170;21.034;2024-02-15T00:58:18;101152.20;;;5.13;59.57
84427;BME280;74637;52.170;21.034;2024-02-15T01:00:44;101149.23;;;5.11;59.68
84427;BME280;74637;52.170;21.034;2024-02-15T01:03:11;101141.53;;;5.09;59.80
84427;BME280;74637;52.170;21.034;2024-02-15T01:05:38;101142.09;;;5.08;59.87
84427;BME280;74637;52.170;21.034;2024-02-15T01:08:05;101142.96;;;5.08;59.58
84427;BME280;74637;52.170;21.034;2024-02-15T01:10:31;101141.58;;;5.07;59.88
84427;BME280;74637;52.170;21.034;2024-02-15T01:13:02;101140.88;;;5.06;59.78
84427;BME280;74637;52.170;21.034;2024-02-15T01:15:28;101141.58;;;5.06;59.81
84427;BME280;74637;52.170;21.034;2024-02-15T01:17:55;101138.23;;;5.06;60.18
84427;BME280;74637;52.170;21.034;2024-02-15T01:20:22;101141.73;;;5.07;60.04
84427;BME280;74637;52.170;21.034;2024-02-15T01:22:48;101138.94;;;5.07;59.98
84427;BME280;74637;52.170;21.034;2024-02-15T01:25:16;101138.39;;;5.08;60.05
84427;BME280;74637;52.170;21.034;2024-02-15T01:27:43;101135.24;;;5.07;59.78
84427;BME280;74637;52.170;21.034;2024-02-15T01:30:10;101134.55;;;5.06;59.80
84427;BME280;74637;52.170;21.034;2024-02-15T01:32:37;101131.21;;;5.06;59.95
84427;BME280;74637;52.170;21.034;2024-02-15T01:35:06;101130.72;;;5.04;60.13
84427;BME280;74637;52.170;21.034;2024-02-15T01:37:34;101129.65;;;5.05;60.08
84427;BME280;74637;52.170;21.034;2024-02-15T01:40:00;101129.67;;;5.04;60.10
84427;BME280;74637;52.170;21.034;2024-02-15T01:42:27;101127.35;;;5.06;60.03
84427;BME280;74637;52.170;21.034;2024-02-15T01:44:54;101122.42;;;5.06;60.17
84427;BME280;74637;52.170;21.034;2024-02-15T01:47:20;101121.91;;;5.06;60.03
84427;BME280;74637;52.170;21.034;2024-02-15T01:49:49;101121.19;;;5.07;60.29
84427;BME280;74637;52.170;21.034;2024-02-15T01:52:17;101120.64;;;5.08;60.18
84427;BME280;74637;52.170;21.034;2024-02-15T01:54:45;101122.23;;;5.08;60.00
84427;BME280;74637;52.170;21.034;2024-02-15T01:57:12;101117.83;;;5.08;60.27
84427;BME280;74637;52.170;21.034;2024-02-15T01:59:38;101119.24;;;5.08;60.11
84427;BME280;74637;52.170;21.034;2024-02-15T02:02:08;101116.29;;;5.06;60.27
84427;BME280;74637;52.170;21.034;2024-02-15T02:04:38;101116.80;;;5.07;60.58
84427;BME280;74637;52.170;21.034;2024-02-15T02:07:05;101112.58;;;5.07;60.59
84427;BME280;74637;52.170;21.034;2024-02-15T02:09:32;101112.04;;;5.08;60.35
84427;BME280;74637;52.170;21.034;2024-02-15T02:11:59;101109.05;;;5.08;60.66
84427;BME280;74637;52.170;21.034;2024-02-15T02:14:26;101109.23;;;5.08;60.35
84427;BME280;74637;52.170;21.034;2024-02-15T02:16:53;101110.98;;;5.08;60.39
84427;BME280;74637;52.170;21.034;2024-02-15T02:19:21;101104.48;;;5.08;60.45
84427;BME280;74637;52.170;21.034;2024-02-15T02:21:48;101105.55;;;5.07;60.48
84427;BME280;74637;52.170;21.034;2024-02-15T02:24:22;101104.48;;;5.08;60.53
84427;BME280;74637;52.170;21.034;2024-02-15T02:26:49;101098.88;;;5.07;60.46
84427;BME280;74637;52.170;21.034;2024-02-15T02:29:16;101095.38;;;5.06;60.64
84427;BME280;74637;52.170;21.034;2024-02-15T02:31:42;101088.91;;;5.04;60.63
84427;BME280;74637;52.170;21.034;2024-02-15T02:34:09;101095.42;;;5.04;60.60
84427;BME280;74637;52.170;21.034;2024-02-15T02:36:36;101106.16;;;5.02;60.63
84427;BME280;74637;52.170;21.034;2024-02-15T02:39:04;101112.48;;;5.02;60.58
84427;BME280;74637;52.170;21.034;2024-02-15T02:41:30;101119.84;;;5.04;60.52
84427;BME280;74637;52.170;21.034;2024-02-15T02:43:57;101116.30;;;5.05;60.48
84427;BME280;74637;52.170;21.034;2024-02-15T02:46:24;101115.41;;;5.06;60.59
84427;BME280;74637;52.170;21.034;2024-02-15T02:48:50;101119.23;;;5.08;60.58
84427;BME280;74637;52.170;21.034;2024-02-15T02:51:18;101111.33;;;5.09;60.71
84427;BME280;74637;52.170;21.034;2024-02-15T02:53:44;101110.46;;;5.08;60.85
84427;BME280;74637;52.170;21.034;2024-02-15T02:56:11;101106.09;;;5.06;60.55
84427;BME280;74637;52.170;21.034;2024-02-15T02:58:39;101105.06;;;5.05;60.65
84427;BME280;74637;52.170;21.034;2024-02-15T03:01:09;101104.36;;;5.05;60.51
84427;BME280;74637;52.170;21.034;2024-02-15T03:03:37;101104.73;;;5.04;60.81
84427;BME280;74637;52.170;21.034;2024-02-15T03:06:04;101103.15;;;5.04;60.70
84427;BME280;74637;52.170;21.034;2024-02-15T03:08:31;101099.98;;;5.04;60.82
84427;BME280;74637;52.170;21.034;2024-02-15T03:10:58;101105.27;;;5.04;61.07
84427;BME280;74637;52.170;21.034;2024-02-15T03:13:24;101106.67;;;5.03;60.90
84427;BME280;74637;52.170;21.034;2024-02-15T03:15:51;101109.83;;;5.04;60.80
84427;BME280;74637;52.170;21.034;2024-02-15T03:18:17;101110.87;;;5.05;60.68
84427;BME280;74637;52.170;21.034;2024-02-15T03:20:44;101109.26;;;5.06;60.90
84427;BME280;74637;52.170;21.034;2024-02-15T03:23:10;101109.77;;;5.08;60.67
84427;BME280;74637;52.170;21.034;2024-02-15T03:25:37;101111.88;;;5.08;60.99
84427;BME280;74637;52.170;21.034;2024-02-15T03:28:04;101116.40;;;5.10;61.04
84427;BME280;74637;52.170;21.034;2024-02-15T03:30:32;101114.11;;;5.10;60.96
84427;BME280;74637;52.170;21.034;2024-02-15T03:33:00;101118.67;;;5.11;61.27
84427;BME280;74637;52.170;21.034;2024-02-15T03:35:31;101116.08;;;5.08;60.97
84427;BME280;74637;52.170;21.034;2024-02-15T03:37:57;101120.45;;;5.09;60.88
84427;BME280;74637;52.170;21.034;2024-02-15T03:40:25;101118.88;;;5.09;61.11
84427;BME280;74637;52.170;21.034;2024-02-15T03:42:56;101118.52;;;5.10;60.78
84427;BME280;74637;52.170;21.034;2024-02-15T03:45:23;101116.21;;;5.10;60.65
84427;BME280;74637;52.170;21.034;2024-02-15T03:47:52;101120.08;;;5.11;60.88
84427;BME280;74637;52.170;21.034;2024-02-15T03:50:19;101118.66;;;5.11;61.31
84427;BME280;74637;52.170;21.034;2024-02-15T03:52:48;101112.52;;;5.11;61.08
84427;BME280;74637;52.170;21.034;2024-02-15T03:55:16;101112.54;;;5.10;61.06
84427;BME280;74637;52.170;21.034;2024-02-15T03:57:43;101112.90;;;5.09;61.15
84427;BME280;74637;52.170;21.034;2024-02-15T04:00:12;101107.64;;;5.08;61.19
84427;BME280;74637;52.170;21.034;2024-02-15T04:02:40;101109.59;;;5.07;61.14
84427;BME280;74637;52.170;21.034;2024-02-15T04:05:07;101110.48;;;5.07;61.42
84427;BME280;74637;52.170;21.034;2024-02-15T04:07:35;101103.48;;;5.05;61.53
84427;BME280;74637;52.170;21.034;2024-02-15T04:10:04;101105.45;;;5.03;61.43
84427;BME280;74637;52.170;21.034;2024-02-15T04:12:31;101105.65;;;5.01;61.44
84427;BME280;74637;52.170;21.034;2024-02-15T04:14:58;101105.69;;;4.99;61.51
84427;BME280;74637;52.170;21.034;2024-02-15T04:17:32;101104.85;;;4.96;61.72
84427;BME280;74637;52.170;21.034;2024-02-15T04:20:01;101102.77;;;4.94;61.91
84427;BME280;74637;52.170;21.034;2024-02-15T04:22:30;101103.86;;;4.92;61.73
84427;BME280;74637;52.170;21.034;2024-02-15T04:25:07;101102.83;;;4.92;61.87
84427;BME280;74637;52.170;21.034;2024-02-15T04:27:36;101100.23;;;4.89;61.97
84427;BME280;74637;52.170;21.034;2024-02-15T04:30:03;101102.21;;;4.86;62.15
84427;BME280;74637;52.170;21.034;2024-02-15T04:32:30;101102.23;;;4.84;62.34
84427;BME280;74637;52.170;21.034;2024-02-15T04:35:00;101100.50;;;4.82;62.12
84427;BME280;74637;52.170;21.034;2024-02-15T04:37:28;101104.73;;;4.82;62.35
84427;BME280;74637;52.170;21.034;2024-02-15T04:39:59;101109.83;;;4.81;62.27
84427;BME280;74637;52.170;21.034;2024-02-15T04:42:34;101111.94;;;4.81;62.10
84427;BME280;74637;52.170;21.034;2024-02-15T04:45:02;101116.66;;;4.83;62.24
84427;BME280;74637;52.170;21.034;2024-02-15T04:47:29;101111.73;;;4.83;62.11
84427;BME280;74637;52.170;21.034;2024-02-15T04:49:56;101114.71;;;4.84;62.35
84427;BME280;74637;52.170;21.034;2024-02-15T04:52:23;101115.22;;;4.84;62.50
84427;BME280;74637;52.170;21.034;2024-02-15T04:54:50;101114.51;;;4.85;62.33
84427;BME280;74637;52.170;21.034;2024-02-15T04:57:17;101119.42;;;4.86;62.46
84427;BME280;74637;52.170;21.034;2024-02-15T04:59:44;101113.95;;;4.88;62.93
84427;BME280;74637;52.170;21.034;2024-02-15T05:02:13;101116.21;;;4.89;62.65
84427;BME280;74637;52.170;21.034;2024-02-15T05:04:40;101114.80;;;4.89;62.98
84427;BME280;74637;52.170;21.034;2024-02-15T05:07:09;101112.66;;;4.90;62.58
84427;BME280;74637;52.170;21.034;2024-02-15T05:09:36;101113.21;;;4.90;62.87
84427;BME280;74637;52.170;21.034;2024-02-15T05:12:03;101110.98;;;4.87;62.78
84427;BME280;74637;52.170;21.034;2024-02-15T05:14:30;101118.89;;;4.86;62.53
84427;BME280;74637;52.170;21.034;2024-02-15T05:16:57;101114.52;;;4.84;62.80
84427;BME280;74637;52.170;21.034;2024-02-15T05:19:25;101113.80;;;4.86;62.53
84427;BME280;74637;52.170;21.034;2024-02-15T05:21:52;101110.80;;;4.88;62.74
84427;BME280;74637;52.170;21.034;2024-02-15T05:24:20;101109.18;;;4.89;62.73
84427;BME280;74637;52.170;21.034;2024-02-15T05:26:47;101110.61;;;4.89;62.66
84427;BME280;74637;52.170;21.034;2024-02-15T05:29:15;101110.09;;;4.88;62.37
84427;BME280;74637;52.170;21.034;2024-02-15T05:31:41;101108.33;;;4.88;62.60
84427;BME280;74637;52.170;21.034;2024-02-15T05:34:11;101113.77;;;4.88;62.65
84427;BME280;74637;52.170;21.034;2024-02-15T05:36:38;101112.36;;;4.89;62.50
84427;BME280;74637;52.170;21.034;2024-02-15T05:39:05;101117.77;;;4.91;62.58
84427;BME280;74637;52.170;21.034;2024-02-15T05:41:31;101124.75;;;4.93;62.59
84427;BME280;74637;52.170;21.034;2024-02-15T05:44:01;101124.39;;;4.94;62.69
84427;BME280;74637;52.170;21.034;2024-02-15T05:46:31;101132.48;;;4.93;62.66
84427;BME280;74637;52.170;21.034;2024-02-15T05:48:57;101132.49;;;4.92;62.47
84427;BME280;74637;52.170;21.034;2024-02-15T05:51:24;101131.10;;;4.92;62.67
84427;BME280;74637;52.170;21.034;2024-02-15T05:53:50;101136.17;;;4.93;62.83
84427;BME280;74637;52.170;21.034;2024-02-15T05:56:17;101139.33;;;4.94;62.96
84427;BME280;74637;52.170;21.034;2024-02-15T05:58:43;101134.59;;;4.94;62.91
84427;BME280;74637;52.170;21.034;2024-02-15T06:01:10;101139.15;;;4.94;63.08
84427;BME280;74637;52.170;21.034;2024-02-15T06:03:39;101139.14;;;4.94;63.10
84427;BME280;74637;52.170;21.034;2024-02-15T06:06:08;101137.35;;;4.95;63.05
84427;BME280;74637;52.170;21.034;2024-02-15T06:08:35;101139.82;;;4.95;63.15
84427;BME280;74637;52.170;21.034;2024-02-15T06:11:03;101137.02;;;4.95;63.39
84427;BME280;74637;52.170;21.034;2024-02-15T06:13:31;101145.84;;;4.93;63.81
84427;BME280;74637;52.170;21.034;2024-02-15T06:15:58;101146.61;;;4.88;64.10
84427;BME280;74637;52.170;21.034;2024-02-15T06:18:27;101148.42;;;4.84;64.08
84427;BME280;74637;52.170;21.034;2024-02-15T06:20:59;101142.15;;;4.81;65.17
84427;BME280;74637;52.170;21.034;2024-02-15T06:23:26;101144.46;;;4.79;65.30
84427;BME280;74637;52.170;21.034;2024-02-15T06:25:55;101145.84;;;4.80;65.31
84427;BME280;74637;52.170;21.034;2024-02-15T06:28:22;101153.56;;;4.81;65.49
84427;BME280;74637;52.170;21.034;2024-02-15T06:31:09;101151.48;;;4.80;66.52
84427;BME280;74637;52.170;21.034;2024-02-15T06:33:54;101160.81;;;4.78;66.43
84427;BME280;74637;52.170;21.034;2024-02-15T06:36:48;101163.98;;;4.77;66.54
84427;BME280;74637;52.170;21.034;2024-02-15T06:39:33;101162.59;;;4.77;67.13
84427;BME280;74637;52.170;21.034;2024-02-15T06:42:14;101162.46;;;4.73;67.15
84427;BME280;74637;52.170;21.034;2024-02-15T06:44:43;101166.55;;;4.69;67.87
84427;BME280;74637;52.170;21.034;2024-02-15T06:47:11;101165.38;;;4.67;68.01
84427;BME280;74637;52.170;21.034;2024-02-15T06:49:39;101165.75;;;4.64;68.61
84427;BME280;74637;52.170;21.034;2024-02-15T06:52:10;101166.13;;;4.61;68.69
84427;BME280;74637;52.170;21.034;2024-02-15T06:54:41;101161.23;;;4.61;69.67
84427;BME280;74637;52.170;21.034;2024-02-15T06:57:08;101165.29;;;4.59;70.22
84427;BME280;74637;52.170;21.034;2024-02-15T06:59:34;101171.31;;;4.55;70.45
84427;BME280;74637;52.170;21.034;2024-02-15T07:02:01;101166.43;;;4.53;70.10
84427;BME280;74637;52.170;21.034;2024-02-15T07:04:31;101169.58;;;4.54;70.65
84427;BME280;74637;52.170;21.034;2024-02-15T07:06:58;101168.05;;;4.50;71.02
84427;BME280;74637;52.170;21.034;2024-02-15T07:09:26;101171.96;;;4.46;72.12
84427;BME280;74637;52.170;21.034;2024-02-15T07:11:53;101178.13;;;4.44;71.51
84427;BME280;74637;52.170;21.034;2024-02-15T07:14:20;101177.60;;;4.44;71.89
84427;BME280;74637;52.170;21.034;2024-02-15T07:16:47;101179.19;;;4.44;72.81
84427;BME280;74637;52.170;21.034;2024-02-15T07:19:15;101182.17;;;4.43;72.77
84427;BME280;74637;52.170;21.034;2024-02-15T07:21:42;101180.74;;;4.45;72.51
84427;BME280;74637;52.170;21.034;2024-02-15T07:24:10;101178.29;;;4.45;72.34
84427;BME280;74637;52.170;21.034;2024-02-15T07:26:36;101182.66;;;4.46;72.60
84427;BME280;74637;52.170;21.034;2024-02-15T07:29:03;101180.19;;;4.47;72.49
84427;BME280;74637;52.170;21.034;2024-02-15T07:31:34;101183.16;;;4.49;72.97
84427;BME280;74637;52.170;21.034;2024-02-15T07:34:01;101184.18;;;4.51;72.55
84427;BME280;74637;52.170;21.034;2024-02-15T07:36:29;101184.48;;;4.55;72.50
84427;BME280;74637;52.170;21.034;2024-02-15T07:38:56;101184.61;;;4.58;73.31
84427;BME280;74637;52.170;21.034;2024-02-15T07:41:27;101183.79;;;4.54;73.65
84427;BME280;74637;52.170;21.034;2024-02-15T07:43:54;101188.35;;;4.54;73.79
84427;BME280;74637;52.170;21.034;2024-02-15T07:46:22;101191.28;;;4.58;73.75
84427;BME280;74637;52.170;21.034;2024-02-15T07:48:48;101196.34;;;4.61;73.63
84427;BME280;74637;52.170;21.034;2024-02-15T07:51:16;101191.79;;;4.60;73.94
84427;BME280;74637;52.170;21.034;2024-02-15T07:53:47;101191.48;;;4.56;74.43
84427;BME280;74637;52.170;21.034;2024-02-15T07:56:15;101191.70;;;4.52;74.70
84427;BME280;74637;52.170;21.034;2024-02-15T07:58:44;101189.46;;;4.50;74.62
84427;BME280;74637;52.170;21.034;2024-02-15T08:01:14;101187.17;;;4.50;75.27
84427;BME280;74637;52.170;21.034;2024-02-15T08:03:42;101182.80;;;4.49;75.79
84427;BME280;74637;52.170;21.034;2024-02-15T08:06:13;101184.73;;;4.49;75.94
84427;BME280;74637;52.170;21.034;2024-02-15T08:08:46;101182.66;;;4.47;76.50
84427;BME280;74637;52.170;21.034;2024-02-15T08:11:14;101181.14;;;4.42;76.71
84427;BME280;74637;52.170;21.034;2024-02-15T08:13:47;101180.28;;;4.40;76.64
84427;BME280;74637;52.170;21.034;2024-02-15T08:16:16;101178.55;;;4.39;77.09
84427;BME280;74637;52.170;21.034;2024-02-15T08:18:43;101178.35;;;4.40;77.60
84427;BME280;74637;52.170;21.034;2024-02-15T08:21:10;101183.77;;;4.42;77.74
84427;BME280;74637;52.170;21.034;2024-02-15T08:23:37;101185.66;;;4.46;78.02
84427;BME280;74637;52.170;21.034;2024-02-15T08:26:04;101183.30;;;4.51;78.53
84427;BME280;74637;52.170;21.034;2024-02-15T08:28:31;101186.91;;;4.57;78.41
84427;BME280;74637;52.170;21.034;2024-02-15T08:30:58;101189.00;;;4.59;78.06
84427;BME280;74637;52.170;21.034;2024-02-15T08:33:25;101185.98;;;4.61;78.43
84427;BME280;74637;52.170;21.034;2024-02-15T08:35:54;101184.39;;;4.63;78.34
84427;BME280;74637;52.170;21.034;2024-02-15T08:38:22;101187.68;;;4.64;78.54
84427;BME280;74637;52.170;21.034;2024-02-15T08:40:49;101188.52;;;4.68;78.30
84427;BME280;74637;52.170;21.034;2024-02-15T08:43:16;101189.55;;;4.70;78.96
84427;BME280;74637;52.170;21.034;2024-02-15T08:45:43;101190.78;;;4.69;79.20
84427;BME280;74637;52.170;21.034;2024-02-15T08:48:11;101191.65;;;4.70;79.10
84427;BME280;74637;52.170;21.034;2024-02-15T08:50:38;101193.05;;;4.70;79.41
84427;BME280;74637;52.170;21.034;2024-02-15T08:53:05;101193.58;;;4.70;78.96
84427;BME280;74637;52.170;21.034;2024-02-15T08:55:33;101194.11;;;4.69;79.40
84427;BME280;74637;52.170;21.034;2024-02-15T08:58:02;101195.14;;;4.71;79.48
84427;BME280;74637;52.170;21.034;2024-02-15T09:00:29;101201.77;;;4.75;79.46
84427;BME280;74637;52.170;21.034;2024-02-15T09:02:56;101200.31;;;4.78;79.20
84427;BME280;74637;52.170;21.034;2024-02-15T09:05:24;101202.91;;;4.81;79.10
84427;BME280;74637;52.170;21.034;2024-02-15T09:07:50;101201.31;;;4.82;79.75
84427;BME280;74637;52.170;21.034;2024-02-15T09:10:18;101205.39;;;4.80;79.83
84427;BME280;74637;52.170;21.034;2024-02-15T09:12:45;101202.61;;;4.77;79.95
84427;BME280;74637;52.170;21.034;2024-02-15T09:15:15;101205.21;;;4.79;80.03
84427;BME280;74637;52.170;21.034;2024-02-15T09:17:43;101202.58;;;4.80;80.21
84427;BME280;74637;52.170;21.034;2024-02-15T09:20:13;101204.66;;;4.82;80.51
84427;BME280;74637;52.170;21.034;2024-02-15T09:22:51;101200.56;;;4.86;80.40
84427;BME280;74637;52.170;21.034;2024-02-15T09:25:18;101202.17;;;4.95;80.45
84427;BME280;74637;52.170;21.034;2024-02-15T09:27:45;101209.98;;;5.02;80.87
84427;BME280;74637;52.170;21.034;2024-02-15T09:30:12;101208.63;;;5.10;80.13
84427;BME280;74637;52.170;21.034;2024-02-15T09:32:39;101211.64;;;5.19;80.17
84427;BME280;74637;52.170;21.034;2024-02-15T09:35:07;101217.70;;;5.26;80.06
84427;BME280;74637;52.170;21.034;2024-02-15T09:37:43;101220.21;;;5.34;80.14
84427;BME280;74637;52.170;21.034;2024-02-15T09:40:16;101217.34;;;5.37;80.01
84427;BME280;74637;52.170;21.034;2024-02-15T09:42:44;101224.01;;;5.38;80.09
84427;BME280;74637;52.170;21.034;2024-02-15T09:45:12;101225.06;;;5.39;79.76
84427;BME280;74637;52.170;21.034;2024-02-15T09:47:41;101222.77;;;5.39;80.15
84427;BME280;74637;52.170;21.034;2024-02-15T09:50:15;101222.61;;;5.38;79.98
84427;BME280;74637;52.170;21.034;2024-02-15T09:52:50;101222.96;;;5.38;80.26
84427;BME280;74637;52.170;21.034;2024-02-15T09:55:18;101215.21;;;5.39;80.31
84427;BME280;74637;52.170;21.034;2024-02-15T09:57:46;101210.48;;;5.38;80.65
84427;BME280;74637;52.170;21.034;2024-02-15T10:00:13;101210.81;;;5.39;81.13
84427;BME280;74637;52.170;21.034;2024-02-15T10:02:42;101209.88;;;5.42;81.01
84427;BME280;74637;52.170;21.034;2024-02-15T10:05:12;101208.91;;;5.48;80.96
84427;BME280;74637;52.170;21.034;2024-02-15T10:07:40;101210.42;;;5.52;81.25
84427;BME280;74637;52.170;21.034;2024-02-15T10:12:46;101205.81;;;5.54;81.04
84427;BME280;74637;52.170;21.034;2024-02-15T10:15:31;101203.69;;;5.55;81.33
84427;BME280;74637;52.170;21.034;2024-02-15T10:17:58;101204.36;;;5.58;81.33
84427;BME280;74637;52.170;21.034;2024-02-15T10:20:25;101198.15;;;5.60;81.15
84427;BME280;74637;52.170;21.034;2024-02-15T10:22:58;101198.98;;;5.63;81.35
84427;BME280;74637;52.170;21.034;2024-02-15T10:25:39;101198.20;;;5.68;81.27
84427;BME280;74637;52.170;21.034;2024-02-15T10:28:11;101198.89;;;5.68;81.81
84427;BME280;74637;52.170;21.034;2024-02-15T10:30:39;101196.93;;;5.69;82.01
84427;BME280;74637;52.170;21.034;2024-02-15T10:33:10;101193.89;;;5.72;81.86
84427;BME280;74637;52.170;21.034;2024-02-15T10:35:36;101186.23;;;5.78;82.00
84427;BME280;74637;52.170;21.034;2024-02-15T10:38:07;101185.20;;;5.87;81.77
84427;BME280;74637;52.170;21.034;2024-02-15T10:40:35;101188.08;;;5.92;81.99
84427;BME280;74637;52.170;21.034;2024-02-15T10:43:03;101186.56;;;5.98;81.90
84427;BME280;74637;52.170;21.034;2024-02-15T10:45:32;101179.63;;;6.04;81.64
84427;BME280;74637;52.170;21.034;2024-02-15T10:47:59;101177.42;;;6.08;81.90
84427;BME280;74637;52.170;21.034;2024-02-15T10:50:26;101174.98;;;6.07;82.20
84427;BME280;74637;52.170;21.034;2024-02-15T10:52:57;101175.90;;;6.05;82.11
84427;BME280;74637;52.170;21.034;2024-02-15T10:58:32;101172.60;;;6.12;82.41
84427;BME280;74637;52.170;21.034;2024-02-15T11:01:06;101168.32;;;6.15;82.49
84427;BME280;74637;52.170;21.034;2024-02-15T11:03:35;101170.21;;;6.16;82.73
84427;BME280;74637;52.170;21.034;2024-02-15T11:06:07;101164.58;;;6.16;82.86
84427;BME280;74637;52.170;21.034;2024-02-15T11:08:35;101167.39;;;6.17;82.65
84427;BME280;74637;52.170;21.034;2024-02-15T11:11:03;101168.42;;;6.18;82.66
84427;BME280;74637;52.170;21.034;2024-02-15T11:13:31;101172.08;;;6.20;82.88
84427;BME280;74637;52.170;21.034;2024-02-15T11:15:57;101169.39;;;6.23;82.82
84427;BME280;74637;52.170;21.034;2024-02-15T11:18:45;101170.36;;;6.27;82.76
84427;BME280;74637;52.170;21.034;2024-02-15T11:21:17;101175.50;;;6.33;82.55
84427;BME280;74637;52.170;21.034;2024-02-15T11:23:44;101170.27;;;6.40;82.58
84427;BME280;74637;52.170;21.034;2024-02-15T11:26:45;101170.98;;;6.47;82.63
84427;BME280;74637;52.170;21.034;2024-02-15T11:35:12;101150.74;;;6.78;82.30
84427;BME280;74637;52.170;21.034;2024-02-15T11:42:44;101144.52;;;7.26;82.05
84427;BME280;74637;52.170;21.034;2024-02-15T11:45:12;101144.10;;;7.41;81.81
84427;BME280;74637;52.170;21.034;2024-02-15T11:47:39;101140.30;;;7.52;81.59
84427;BME280;74637;52.170;21.034;2024-02-15T11:50:09;101138.62;;;7.63;81.57
84427;BME280;74637;52.170;21.034;2024-02-15T11:52:41;101139.31;;;7.76;81.51
84427;BME280;74637;52.170;21.034;2024-02-15T11:55:09;101139.33;;;7.82;80.93
84427;BME280;74637;52.170;21.034;2024-02-15T11:57:42;101142.38;;;7.80;80.73
84427;BME280;74637;52.170;21.034;2024-02-15T12:00:25;101145.27;;;7.77;80.66
84427;BME280;74637;52.170;21.034;2024-02-15T12:03:22;101145.29;;;7.77;80.72
84427;BME280;74637;52.170;21.034;2024-02-15T12:06:08;101144.08;;;7.82;80.92
84427;BME280;74637;52.170;21.034;2024-02-15T12:08:54;101144.36;;;7.91;80.88
84427;BME280;74637;52.170;21.034;2024-02-15T12:11:40;101143.80;;;8.05;80.63
84427;BME280;74637;52.170;21.034;2024-02-15T12:14:25;101141.23;;;8.15;80.27
84427;BME280;74637;52.170;21.034;2024-02-15T12:17:12;101141.90;;;8.16;80.09
84427;BME280;74637;52.170;21.034;2024-02-15T12:20:03;101132.84;;;8.18;80.02
84427;BME280;74637;52.170;21.034;2024-02-15T12:22:43;101131.81;;;8.22;79.88
84427;BME280;74637;52.170;21.034;2024-02-15T12:25:15;101126.94;;;8.32;79.96
84427;BME280;74637;52.170;21.034;2024-02-15T12:27:46;101132.05;;;8.45;79.70
84427;BME280;74637;52.170;21.034;2024-02-15T12:30:17;101135.23;;;8.51;79.58
84427;BME280;74637;52.170;21.034;2024-02-15T12:32:48;101135.57;;;8.58;79.46
84427;BME280;74637;52.170;21.034;2024-02-15T12:35:19;101139.33;;;8.62;79.30
84427;BME280;74637;52.170;21.034;2024-02-15T12:38:02;101129.85;;;8.66;79.23
84427;BME280;74637;52.170;21.034;2024-02-15T12:40:33;101129.16;;;8.71;79.25
84427;BME280;74637;52.170;21.034;2024-02-15T12:43:00;101129.84;;;8.72;79.05
84427;BME280;74637;52.170;21.034;2024-02-15T12:45:27;101127.14;;;8.68;78.82
84427;BME280;74637;52.170;21.034;2024-02-15T12:47:54;101126.45;;;8.61;78.49
84427;BME280;74637;52.170;21.034;2024-02-15T12:50:28;101131.83;;;8.53;78.33
84427;BME280;74637;52.170;21.034;2024-02-15T12:52:55;101132.70;;;8.47;78.48
84427;BME280;74637;52.170;21.034;2024-02-15T12:55:38;101135.84;;;8.42;78.48
84427;BME280;74637;52.170;21.034;2024-02-15T12:58:07;101134.67;;;8.40;78.48
84427;BME280;74637;52.170;21.034;2024-02-15T13:00:40;101134.58;;;8.36;78.46
84427;BME280;74637;52.170;21.034;2024-02-15T13:03:08;101135.52;;;8.35;78.56
84427;BME280;74637;52.170;21.034;2024-02-15T13:05:38;101136.77;;;8.34;78.63
84427;BME280;74637;52.170;21.034;2024-02-15T13:08:05;101136.20;;;8.36;78.65
84427;BME280;74637;52.170;21.034;2024-02-15T13:10:37;101132.00;;;8.40;78.73
84427;BME280;74637;52.170;21.034;2024-02-15T13:13:05;101129.40;;;8.51;78.72
84427;BME280;74637;52.170;21.034;2024-02-15T13:15:32;101123.58;;;8.63;78.44
84427;BME280;74637;52.170;21.034;2024-02-15T13:18:03;101121.04;;;8.76;78.32